createdAt,value
2018-03-17T00:00:56.887Z,97895.55
2018-03-17T00:03:25.009Z,97894.56
2018-03-17T00:05:52.580Z,97888.52
2018-03-17T00:08:20.107Z,97882.77
2018-03-17T00:10:48.359Z,97891.25
2018-03-17T00:13:15.903Z,97882.16
2018-03-17T00:15:44.244Z,97887.02
2018-03-17T00:18:11.778Z,97878.08
2018-03-17T00:20:40.538Z,97885.53
2018-03-17T00:23:09.149Z,97892.13
2018-03-17T00:25:37.373Z,97892.80
2018-03-17T00:28:04.899Z,97895.25
2018-03-17T00:30:32.452Z,97886.79
2018-03-17T00:33:00.210Z,97893.34
2018-03-17T00:35:28.526Z,97895.46
2018-03-17T00:37:56.059Z,97902.95
2018-03-17T00:40:23.639Z,97900.58
2018-03-17T00:42:51.153Z,97904.62
2018-03-17T00:45:18.919Z,97901.97
2018-03-17T00:47:46.876Z,97895.00
2018-03-17T00:50:14.477Z,97898.91
2018-03-17T00:52:43.127Z,97899.00
2018-03-17T00:55:11.621Z,97902.77
2018-03-17T00:57:40.158Z,97896.22
2018-03-17T01:00:07.688Z,97898.36
2018-03-17T01:02:36.105Z,97894.41
2018-03-17T01:05:03.657Z,97891.48
2018-03-17T01:07:31.632Z,97880.97
2018-03-17T01:10:00.040Z,97880.16
2018-03-17T01:12:28.536Z,97876.09
2018-03-17T01:14:57.315Z,97878.92
2018-03-17T01:17:25.039Z,97874.73
2018-03-17T01:19:53.547Z,97883.90
2018-03-17T01:22:21.105Z,97876.01
2018-03-17T01:24:49.133Z,97870.06
2018-03-17T01:27:17.451Z,97860.73
2018-03-17T01:29:45.056Z,97858.05
2018-03-17T01:32:13.588Z,97850.20
2018-03-17T01:34:41.110Z,97861.28
2018-03-17T01:37:09.332Z,97858.23
2018-03-17T01:39:37.116Z,97856.70
2018-03-17T01:42:05.623Z,97855.08
2018-03-17T01:44:33.787Z,97848.12
2018-03-17T01:47:02.011Z,97848.30
2018-03-17T01:49:30.774Z,97856.34
2018-03-17T01:51:58.577Z,97841.07
2018-03-17T01:54:32.108Z,97845.13
2018-03-17T01:57:00.931Z,97816.05
2018-03-17T01:59:28.452Z,97839.02
2018-03-17T02:01:56.045Z,97842.69
2018-03-17T02:04:23.583Z,97834.48
2018-03-17T02:06:51.142Z,97835.47
2018-03-17T02:09:18.668Z,97830.97
2018-03-17T02:11:46.214Z,97833.12
2018-03-17T02:14:13.727Z,97830.02
2018-03-17T02:16:41.285Z,97825.40
2018-03-17T02:19:08.816Z,97825.49
2018-03-17T02:21:36.407Z,97815.34
2018-03-17T02:24:03.955Z,97808.68
2018-03-17T02:26:31.509Z,97813.44
2018-03-17T02:28:59.091Z,97813.34
2018-03-17T02:31:26.757Z,97816.51
2018-03-17T02:33:54.276Z,97811.38
2018-03-17T02:36:21.819Z,97809.44
2018-03-17T02:38:49.395Z,97807.38
2018-03-17T02:41:16.924Z,97799.43
2018-03-17T02:43:44.500Z,97801.45
2018-03-17T02:46:12.024Z,97800.27
2018-03-17T02:48:39.676Z,97792.30
2018-03-17T02:51:07.201Z,97798.80
2018-03-17T02:53:34.761Z,97786.08
2018-03-17T02:56:02.276Z,97789.00
2018-03-17T02:58:29.832Z,97782.32
2018-03-17T03:00:57.356Z,97789.94
2018-03-17T03:03:24.922Z,97794.49
2018-03-17T03:05:52.439Z,97782.16
2018-03-17T03:08:19.998Z,97777.91
2018-03-17T03:10:47.524Z,97778.25
2018-03-17T03:13:15.164Z,97773.81
2018-03-17T03:15:42.683Z,97777.63
2018-03-17T03:18:10.232Z,97773.88
2018-03-17T03:20:37.764Z,97767.41
2018-03-17T03:23:05.334Z,97764.80
2018-03-17T03:25:32.966Z,97765.35
2018-03-17T03:28:01.319Z,97746.29
2018-03-17T03:30:28.835Z,97771.59
2018-03-17T03:32:56.451Z,97771.06
2018-03-17T03:35:23.973Z,97780.41
2018-03-17T03:37:51.530Z,97779.31
2018-03-17T03:40:19.052Z,97779.50
2018-03-17T03:42:46.617Z,97772.46
2018-03-17T03:45:14.162Z,97770.30
2018-03-17T03:47:41.731Z,97771.02
2018-03-17T03:50:09.252Z,97762.25
2018-03-17T03:52:36.817Z,97764.95
2018-03-17T03:55:04.360Z,97760.06
2018-03-17T03:57:31.943Z,97762.28
2018-03-17T03:59:59.469Z,97767.95
2018-03-17T04:02:27.049Z,97768.23
2018-03-17T04:04:54.577Z,97762.41
2018-03-17T04:07:22.119Z,97761.94
2018-03-17T04:09:49.646Z,97768.49
2018-03-17T04:12:17.204Z,97769.76
2018-03-17T04:14:44.729Z,97763.63
2018-03-17T04:17:12.274Z,97764.50
2018-03-17T04:19:39.857Z,97766.84
2018-03-17T04:22:07.410Z,97765.28
2018-03-17T04:24:36.546Z,97769.20
2018-03-17T04:27:04.077Z,97768.37
2018-03-17T04:29:31.676Z,97767.80
2018-03-17T04:31:59.223Z,97767.30
2018-03-17T04:34:26.799Z,97762.89
2018-03-17T04:36:54.319Z,97760.20
2018-03-17T04:39:21.901Z,97775.12
2018-03-17T04:41:49.451Z,97761.91
2018-03-17T04:44:17.005Z,97764.41
2018-03-17T04:46:44.523Z,97776.02
2018-03-17T04:49:12.110Z,97771.06
2018-03-17T04:51:39.633Z,97765.87
2018-03-17T04:54:07.203Z,97772.63
2018-03-17T04:56:34.747Z,97766.40
2018-03-17T04:59:02.300Z,97765.62
2018-03-17T05:01:29.831Z,97762.70
2018-03-17T05:03:57.402Z,97769.20
2018-03-17T05:06:24.928Z,97768.16
2018-03-17T05:08:52.475Z,97777.08
2018-03-17T05:11:20.005Z,97765.09
2018-03-17T05:13:47.560Z,97762.91
2018-03-17T05:16:15.107Z,97763.91
2018-03-17T05:18:42.668Z,97761.20
2018-03-17T05:21:10.272Z,97754.00
2018-03-17T05:23:37.843Z,97758.42
2018-03-17T05:26:05.420Z,97750.53
2018-03-17T05:28:32.977Z,97753.27
2018-03-17T05:31:00.494Z,97747.77
2018-03-17T05:33:28.043Z,97755.05
2018-03-17T05:35:55.563Z,97746.50
2018-03-17T05:38:23.115Z,97752.27
2018-03-17T05:40:50.663Z,97759.48
2018-03-17T05:43:18.259Z,97748.27
2018-03-17T05:45:45.796Z,97752.95
2018-03-17T05:48:13.347Z,97759.49
2018-03-17T05:50:40.899Z,97757.18
2018-03-17T05:53:08.464Z,97749.47
2018-03-17T05:55:36.000Z,97747.56
2018-03-17T05:58:03.529Z,97749.92
2018-03-17T06:00:31.093Z,97748.59
2018-03-17T06:02:58.616Z,97750.25
2018-03-17T06:05:26.181Z,97744.94
2018-03-17T06:07:53.716Z,97745.19
2018-03-17T06:10:21.266Z,97747.63
2018-03-17T06:12:48.797Z,97735.91
2018-03-17T06:15:17.325Z,97734.12
2018-03-17T06:17:44.843Z,97735.77
2018-03-17T06:20:12.425Z,97733.90
2018-03-17T06:22:39.955Z,97734.41
2018-03-17T06:25:07.533Z,97739.77
2018-03-17T06:27:35.064Z,97743.17
2018-03-17T06:30:02.637Z,97736.13
2018-03-17T06:32:30.181Z,97747.69
2018-03-17T06:34:57.779Z,97731.27
2018-03-17T06:37:25.300Z,97733.39
2018-03-17T06:39:52.870Z,97737.47
2018-03-17T06:42:20.415Z,97730.44
2018-03-17T06:44:47.978Z,97732.05
2018-03-17T06:47:15.496Z,97729.98
2018-03-17T06:49:43.542Z,97723.84
2018-03-17T06:52:12.725Z,97725.20
2018-03-17T06:54:40.704Z,97724.16
2018-03-17T06:57:08.227Z,97722.78
2018-03-17T06:59:35.775Z,97728.74
2018-03-17T07:02:03.310Z,97729.66
2018-03-17T07:04:30.893Z,97719.95
2018-03-17T07:06:58.443Z,97722.80
2018-03-17T07:09:26.363Z,97723.98
2018-03-17T07:11:53.907Z,97712.97
2018-03-17T07:14:21.476Z,97731.30
2018-03-17T07:16:49.118Z,97722.56
2018-03-17T07:19:20.250Z,97716.56
2018-03-17T07:21:48.067Z,97724.97
2018-03-17T07:24:20.842Z,97716.06
2018-03-17T07:26:48.429Z,97725.13
2018-03-17T07:29:21.200Z,97722.08
2018-03-17T07:31:52.513Z,97716.97
2018-03-17T07:34:24.531Z,97700.75
2018-03-17T07:36:57.718Z,97711.17
2018-03-17T07:39:29.085Z,97700.02
2018-03-17T07:41:59.910Z,97688.78
2018-03-17T07:44:30.242Z,97701.11
2018-03-17T07:47:02.410Z,97703.83
2018-03-17T07:49:33.366Z,97703.28
2018-03-17T07:52:03.666Z,97697.48
2018-03-17T07:54:35.731Z,97702.88
2018-03-17T07:57:07.811Z,97696.03
2018-03-17T07:59:41.067Z,97707.30
2018-03-17T08:02:13.808Z,97702.16
2018-03-17T08:04:46.247Z,97699.53
2018-03-17T08:09:53.420Z,97698.56
2018-03-17T08:12:25.682Z,97696.45
2018-03-17T08:14:57.231Z,97699.02
2018-03-17T08:17:27.227Z,97694.63
2018-03-17T08:19:58.356Z,97690.45
2018-03-17T08:25:07.357Z,97695.47
2018-03-17T08:27:39.168Z,97687.62
2018-03-17T08:30:09.688Z,97682.53
2018-03-17T08:32:40.807Z,97675.33
2018-03-17T08:38:01.325Z,97684.06
2018-03-17T08:40:32.952Z,97676.28
2018-03-17T08:43:04.000Z,97680.41
2018-03-17T08:45:35.486Z,97687.75
2018-03-17T08:48:05.670Z,97682.28
2018-03-17T08:50:36.725Z,97686.73
2018-03-17T08:53:07.405Z,97684.02
2018-03-17T08:55:38.575Z,97685.64
2018-03-17T08:58:12.978Z,97678.02
2018-03-17T09:00:43.820Z,97681.00
2018-03-17T09:03:14.396Z,97686.06
2018-03-17T09:05:44.996Z,97677.11
2018-03-17T09:08:16.249Z,97684.30
2018-03-17T09:10:47.486Z,97683.69
2018-03-17T09:13:18.983Z,97699.80
2018-03-17T09:15:50.772Z,97688.98
2018-03-17T09:18:22.335Z,97693.56
2018-03-17T09:20:52.711Z,97703.91
2018-03-17T09:23:24.289Z,97702.94
2018-03-17T09:25:56.286Z,97691.91
2018-03-17T09:28:27.217Z,97693.70
2018-03-17T09:30:58.145Z,97679.59
2018-03-17T09:33:30.620Z,97689.34
2018-03-17T09:36:01.763Z,97690.16
2018-03-17T09:38:33.418Z,97687.76
2018-03-17T09:41:05.314Z,97698.94
2018-03-17T09:43:38.177Z,97691.35
2018-03-17T09:46:11.125Z,97683.52
2018-03-17T09:48:42.315Z,97690.63
2018-03-17T09:51:13.633Z,97693.42
2018-03-17T09:53:44.746Z,97698.48
2018-03-17T09:56:12.316Z,97692.69
2018-03-17T09:58:39.876Z,97698.48
2018-03-17T10:01:07.423Z,97692.73
2018-03-17T10:03:35.417Z,97698.92
2018-03-17T10:06:03.367Z,97712.23
2018-03-17T10:08:30.889Z,97713.70
2018-03-17T10:10:58.505Z,97704.16
2018-03-17T10:13:26.037Z,97706.82
2018-03-17T10:15:53.591Z,97701.65
2018-03-17T10:18:23.894Z,97697.17
2018-03-17T10:20:51.919Z,97703.64
2018-03-17T10:23:19.445Z,97705.05
2018-03-17T10:25:47.041Z,97710.16
2018-03-17T10:28:14.619Z,97718.57
2018-03-17T10:30:42.180Z,97704.63
2018-03-17T10:33:09.715Z,97712.02
2018-03-17T10:35:37.254Z,97727.73
2018-03-17T10:38:04.800Z,97714.92
2018-03-17T10:40:36.459Z,97713.64
2018-03-17T10:43:06.518Z,97719.94
2018-03-17T10:45:37.982Z,97704.39
2018-03-17T10:48:09.017Z,97712.91
2018-03-17T10:50:39.342Z,97708.83
2018-03-17T10:53:10.006Z,97700.76
2018-03-17T10:55:40.730Z,97701.29
2018-03-17T10:58:12.077Z,97694.67
2018-03-17T11:00:49.357Z,97703.48
2018-03-17T11:03:20.409Z,97704.42
2018-03-17T11:05:51.448Z,97708.11
2018-03-17T11:08:21.932Z,97699.37
2018-03-17T11:10:55.636Z,97704.59
2018-03-17T11:13:31.557Z,97703.48
2018-03-17T11:16:04.624Z,97705.50
2018-03-17T11:18:37.191Z,97703.29
2018-03-17T11:21:07.219Z,97706.17
2018-03-17T11:23:40.350Z,97681.58
2018-03-17T11:26:12.499Z,97716.63
2018-03-17T11:28:44.527Z,97701.38
2018-03-17T11:31:15.613Z,97692.77
2018-03-17T11:33:46.507Z,97696.50
2018-03-17T11:36:17.975Z,97687.89
2018-03-17T11:38:48.908Z,97693.78
2018-03-17T11:41:19.994Z,97694.64
2018-03-17T11:43:50.771Z,97689.77
2018-03-17T11:46:23.006Z,97684.17
2018-03-17T11:49:03.159Z,97686.30
2018-03-17T11:51:36.775Z,97688.97
2018-03-17T11:54:08.492Z,97689.98
2018-03-17T11:56:39.897Z,97684.20
2018-03-17T11:59:12.902Z,97689.63
2018-03-17T12:01:46.485Z,97686.24
2018-03-17T12:04:18.793Z,97671.72
2018-03-17T12:06:49.165Z,97676.13
2018-03-17T12:09:23.230Z,97679.80
2018-03-17T12:11:54.308Z,97676.31
2018-03-17T12:14:25.760Z,97686.32
2018-03-17T12:16:56.590Z,97681.33
2018-03-17T12:19:27.088Z,97681.27
2018-03-17T12:21:58.157Z,97678.08
2018-03-17T12:24:29.250Z,97677.95
2018-03-17T12:27:00.622Z,97664.49
2018-03-17T12:29:33.990Z,97674.09
2018-03-17T12:32:05.336Z,97675.36
2018-03-17T12:34:36.567Z,97676.46
2018-03-17T12:37:07.579Z,97663.70
2018-03-17T12:39:39.415Z,97661.53
2018-03-17T12:42:10.588Z,97667.39
2018-03-17T12:44:41.426Z,97658.60
2018-03-17T12:47:12.273Z,97648.73
2018-03-17T12:49:44.400Z,97648.34
2018-03-17T12:52:16.327Z,97642.64
2018-03-17T12:54:47.540Z,97651.83
2018-03-17T12:57:19.712Z,97645.05
2018-03-17T12:59:50.635Z,97649.31
2018-03-17T13:02:23.240Z,97645.28
2018-03-17T13:04:55.516Z,97634.34
2018-03-17T13:07:26.641Z,97631.86
2018-03-17T13:09:58.049Z,97615.43
2018-03-17T13:12:30.251Z,97630.31
2018-03-17T13:15:01.155Z,97613.41
2018-03-17T13:20:12.707Z,97604.02
2018-03-17T13:22:55.290Z,97592.13
2018-03-17T13:25:26.521Z,97602.14
2018-03-17T13:28:08.097Z,97606.44
2018-03-17T13:30:39.338Z,97616.46
2018-03-17T13:33:12.356Z,97609.84
2018-03-17T13:35:53.749Z,97601.52
2018-03-17T13:38:24.914Z,97593.92
2018-03-17T13:40:56.809Z,97594.24
2018-03-17T13:43:27.709Z,97592.45
2018-03-17T13:45:59.338Z,97586.94
2018-03-17T13:48:30.219Z,97587.72
2018-03-17T13:51:01.444Z,97584.23
2018-03-17T13:53:32.742Z,97581.08
2018-03-17T13:56:04.104Z,97593.95
2018-03-17T13:58:37.088Z,97592.01
2018-03-17T14:01:08.204Z,97594.86
2018-03-17T14:03:39.425Z,97601.08
2018-03-17T14:06:10.929Z,97601.90
2018-03-17T14:08:43.892Z,97577.53
2018-03-17T14:11:14.982Z,97607.79
2018-03-17T14:13:46.452Z,97600.99
2018-03-17T14:16:18.701Z,97598.17
2018-03-17T14:18:49.962Z,97606.52
2018-03-17T14:21:21.343Z,97608.70
2018-03-17T14:23:52.589Z,97617.53
2018-03-17T14:26:23.641Z,97616.00
2018-03-17T14:28:55.728Z,97616.88
2018-03-17T14:31:27.190Z,97618.14
2018-03-17T14:33:58.225Z,97616.47
2018-03-17T14:36:29.599Z,97618.37
2018-03-17T14:39:00.968Z,97611.30
2018-03-17T14:41:32.068Z,97624.91
2018-03-17T14:44:04.183Z,97627.72
2018-03-17T14:46:35.395Z,97629.68
2018-03-17T14:49:06.591Z,97632.23
2018-03-17T14:51:38.095Z,97626.78
2018-03-17T14:54:09.804Z,97622.94
2018-03-17T14:56:40.525Z,97620.94
2018-03-17T14:59:11.652Z,97627.80
2018-03-17T15:01:42.682Z,97635.84
2018-03-17T15:04:14.003Z,97630.87
2018-03-17T15:06:45.208Z,97641.50
2018-03-17T15:09:17.142Z,97637.44
2018-03-17T15:11:49.080Z,97641.91
2018-03-17T15:14:20.545Z,97633.52
2018-03-17T15:16:51.506Z,97634.55
2018-03-17T15:19:25.045Z,97630.84
2018-03-17T15:21:56.772Z,97641.77
2018-03-17T15:24:28.100Z,97635.75
2018-03-17T15:26:59.522Z,97650.45
2018-03-17T15:29:31.541Z,97635.80
2018-03-17T15:32:02.779Z,97648.14
2018-03-17T15:34:34.451Z,97648.34
2018-03-17T15:37:05.478Z,97644.67
2018-03-17T15:39:34.194Z,97654.75
2018-03-17T15:42:03.661Z,97645.29
2018-03-17T15:44:32.671Z,97658.47
2018-03-17T15:47:02.204Z,97638.39
2018-03-17T15:49:35.165Z,97640.48
2018-03-17T15:52:03.678Z,97642.57
2018-03-17T15:54:34.492Z,97643.94
2018-03-17T15:57:03.128Z,97648.44
2018-03-17T15:59:31.724Z,97636.95
2018-03-17T16:02:03.331Z,97643.73
2018-03-17T16:04:30.913Z,97644.00
2018-03-17T16:07:00.636Z,97634.84
2018-03-17T16:09:29.224Z,97645.17
2018-03-17T16:11:59.170Z,97647.56
2018-03-17T16:14:29.844Z,97656.59
2018-03-17T16:16:58.451Z,97646.81
2018-03-17T16:19:28.678Z,97650.92
2018-03-17T16:22:00.740Z,97658.53
2018-03-17T16:24:32.336Z,97660.58
2018-03-17T16:27:02.139Z,97652.81
2018-03-17T16:29:31.452Z,97666.41
2018-03-17T16:32:00.885Z,97671.37
2018-03-17T16:34:31.291Z,97669.69
2018-03-17T16:36:59.835Z,97656.47
2018-03-17T16:39:27.897Z,97658.86
2018-03-17T16:41:57.720Z,97664.08
2018-03-17T16:44:25.675Z,97656.67
2018-03-17T16:46:54.133Z,97660.84
2018-03-17T16:49:23.545Z,97664.22
2018-03-17T16:51:51.867Z,97669.00
2018-03-17T16:54:22.711Z,97665.95
2018-03-17T16:56:54.314Z,97665.81
2018-03-17T16:59:22.289Z,97676.70
2018-03-17T17:01:51.837Z,97673.56
2018-03-17T17:04:21.492Z,97681.58
2018-03-17T17:06:49.084Z,97680.45
2018-03-17T17:09:18.246Z,97675.67
2018-03-17T17:11:46.204Z,97684.03
2018-03-17T17:14:13.809Z,97682.56
2018-03-17T17:16:43.878Z,97682.00
2018-03-17T17:19:14.677Z,97681.68
2018-03-17T17:21:43.770Z,97675.87
2018-03-17T17:24:11.669Z,97689.08
2018-03-17T17:26:42.682Z,97689.14
2018-03-17T17:29:13.644Z,97683.52
2018-03-17T17:31:44.713Z,97705.72
2018-03-17T17:34:15.987Z,97688.44
2018-03-17T17:36:46.683Z,97697.44
2018-03-17T17:39:18.112Z,97699.34
2018-03-17T17:41:50.487Z,97701.91
2018-03-17T17:44:22.759Z,97697.69
2018-03-17T17:46:59.080Z,97704.59
2018-03-17T17:49:29.631Z,97719.20
2018-03-17T17:52:00.882Z,97707.28
2018-03-17T17:54:35.256Z,97717.81
2018-03-17T17:57:08.466Z,97726.50
2018-03-17T17:59:42.326Z,97728.13
2018-03-17T18:02:15.081Z,97725.22
2018-03-17T18:04:47.270Z,97725.83
2018-03-17T18:07:19.451Z,97725.38
2018-03-17T18:09:50.204Z,97729.22
2018-03-17T18:12:21.236Z,97727.44
2018-03-17T18:14:52.783Z,97731.65
2018-03-17T18:17:24.930Z,97730.23
2018-03-17T18:19:58.346Z,97728.16
2018-03-17T18:22:29.194Z,97731.76
2018-03-17T18:24:59.951Z,97728.20
2018-03-17T18:27:31.355Z,97728.36
2018-03-17T18:30:03.672Z,97722.82
2018-03-17T18:32:37.398Z,97738.86
2018-03-17T18:35:09.151Z,97732.61
2018-03-17T18:37:41.602Z,97740.91
2018-03-17T18:40:13.823Z,97731.17
2018-03-17T18:42:44.855Z,97736.72
2018-03-17T18:45:16.109Z,97744.33
2018-03-17T18:47:47.764Z,97712.75
2018-03-17T18:50:18.755Z,97746.75
2018-03-17T18:52:49.607Z,97746.68
2018-03-17T18:55:22.288Z,97757.16
2018-03-17T18:57:53.928Z,97758.64
2018-03-17T19:00:25.472Z,97745.59
2018-03-17T19:02:56.792Z,97763.83
2018-03-17T19:05:27.245Z,97758.53
2018-03-17T19:08:00.077Z,97759.56
2018-03-17T19:10:32.285Z,97766.38
2018-03-17T19:13:03.620Z,97759.30
2018-03-17T19:15:35.280Z,97760.04
2018-03-17T19:18:06.941Z,97764.27
2018-03-17T19:20:37.880Z,97771.39
2018-03-17T19:23:10.388Z,97766.15
2018-03-17T19:25:41.755Z,97760.04
2018-03-17T19:28:13.294Z,97765.09
2018-03-17T19:30:45.934Z,97773.22
2018-03-17T19:33:17.238Z,97758.03
2018-03-17T19:35:49.200Z,97779.85
2018-03-17T19:38:20.882Z,97769.50
2018-03-17T19:40:52.327Z,97776.70
2018-03-17T19:43:26.545Z,97768.27
2018-03-17T19:45:57.916Z,97775.03
2018-03-17T19:48:29.449Z,97766.27
2018-03-17T19:51:01.530Z,97776.91
2018-03-17T19:53:33.688Z,97774.58
2018-03-17T19:56:05.060Z,97763.48
2018-03-17T19:58:38.121Z,97766.89
2018-03-17T20:01:08.763Z,97779.30
2018-03-17T20:03:42.583Z,97775.67
2018-03-17T20:06:10.555Z,97773.78
2018-03-17T20:08:38.214Z,97783.63
2018-03-17T20:11:05.736Z,97783.30
2018-03-17T20:13:34.967Z,97792.34
2018-03-17T20:16:02.686Z,97794.46
2018-03-17T20:18:31.043Z,97786.41
2018-03-17T20:20:58.568Z,97789.14
2018-03-17T20:23:26.230Z,97788.33
2018-03-17T20:25:53.757Z,97791.20
2018-03-17T20:28:21.329Z,97779.30
2018-03-17T20:30:48.853Z,97784.92
2018-03-17T20:33:16.412Z,97800.09
2018-03-17T20:35:44.484Z,97796.41
2018-03-17T20:38:12.741Z,97799.22
2018-03-17T20:40:41.704Z,97804.55
2018-03-17T20:43:09.820Z,97807.42
2018-03-17T20:45:37.940Z,97813.76
2018-03-17T20:48:06.171Z,97806.20
2018-03-17T20:50:33.710Z,97812.92
2018-03-17T20:53:01.337Z,97809.70
2018-03-17T20:55:28.898Z,97816.61
2018-03-17T20:57:56.596Z,97808.77
2018-03-17T21:00:24.103Z,97814.50
2018-03-17T21:02:51.658Z,97815.91
2018-03-17T21:05:19.193Z,97815.78
2018-03-17T21:07:46.760Z,97825.17
2018-03-17T21:10:14.312Z,97823.69
2018-03-17T21:12:41.916Z,97827.89
2018-03-17T21:15:09.448Z,97826.84
2018-03-17T21:17:37.041Z,97829.21
2018-03-17T21:20:04.602Z,97815.69
2018-03-17T21:22:32.195Z,97822.07
2018-03-17T21:24:59.746Z,97824.86
2018-03-17T21:27:27.964Z,97823.64
2018-03-17T21:29:55.503Z,97830.27
2018-03-17T21:32:25.727Z,97828.87
2018-03-17T21:34:53.532Z,97833.67
2018-03-17T21:37:21.071Z,97816.72
2018-03-17T21:39:48.670Z,97830.89
2018-03-17T21:42:16.557Z,97830.92
2018-03-17T21:44:44.170Z,97829.58
2018-03-17T21:47:11.806Z,97839.98
2018-03-17T21:49:39.394Z,97827.83
2018-03-17T21:52:06.915Z,97833.34
2018-03-17T21:54:36.703Z,97834.39
2018-03-17T21:57:04.229Z,97840.38
2018-03-17T21:59:31.799Z,97844.94
2018-03-17T22:01:59.443Z,97844.33
2018-03-17T22:04:27.043Z,97846.06
2018-03-17T22:06:56.168Z,97838.01
2018-03-17T22:09:26.805Z,97833.75
2018-03-17T22:11:55.506Z,97842.16
2018-03-17T22:14:25.450Z,97841.75
2018-03-17T22:16:55.456Z,97845.63
2018-03-17T22:19:25.549Z,97853.92
2018-03-17T22:21:55.276Z,97839.98
2018-03-17T22:24:25.054Z,97845.66
2018-03-17T22:26:53.832Z,97846.47
2018-03-17T22:29:21.625Z,97848.41
2018-03-17T22:31:49.436Z,97847.77
2018-03-17T22:34:18.066Z,97841.17
2018-03-17T22:36:45.677Z,97846.72
2018-03-17T22:39:15.252Z,97847.84
2018-03-17T22:41:43.825Z,97858.96
2018-03-17T22:44:15.507Z,97845.72
2018-03-17T22:46:44.390Z,97849.34
2018-03-17T22:49:12.606Z,97849.04
2018-03-17T22:51:40.532Z,97857.28
2018-03-17T22:54:10.560Z,97860.40
2018-03-17T22:56:38.157Z,97855.94
2018-03-17T22:59:05.716Z,97854.53
2018-03-17T23:01:35.793Z,97850.16
2018-03-17T23:04:04.172Z,97862.50
2018-03-17T23:06:31.925Z,97852.77
2018-03-17T23:08:59.472Z,97850.53
2018-03-17T23:11:27.080Z,97850.88
2018-03-17T23:13:54.997Z,97839.48
2018-03-17T23:16:22.787Z,97849.30
2018-03-17T23:18:50.335Z,97847.81
2018-03-17T23:21:18.260Z,97859.78
2018-03-17T23:23:45.827Z,97851.70
2018-03-17T23:26:13.464Z,97849.28
2018-03-17T23:28:41.842Z,97852.00
2018-03-17T23:31:09.454Z,97862.89
2018-03-17T23:33:38.539Z,97855.70
2018-03-17T23:36:06.523Z,97855.85
2018-03-17T23:38:35.196Z,97844.11
2018-03-17T23:41:03.378Z,97859.48
2018-03-17T23:43:30.926Z,97856.06
2018-03-17T23:45:59.096Z,97864.38
2018-03-17T23:48:28.078Z,97861.34
2018-03-17T23:50:56.000Z,97858.25
2018-03-17T23:53:24.086Z,97860.75
2018-03-17T23:55:52.318Z,97860.12
2018-03-17T23:58:22.572Z,97868.03
